Home > Products > Valid Products > TAF

000
FTUS42 KTBW 220300 AAA
TAFTPA
TAF AMD
KTPA 220302Z 2203/2224 05009KT P6SM OVC070
     FM221200 08010KT P6SM VCSH SCT020 BKN030 OVC060
     FM221800 09011KT P6SM VCSH BKN025 OVC050=



000
FTUS42 KTBW 212300
TAFSRQ
TAF
KSRQ 212324Z 2200/2224 06012KT P6SM VCSH BKN070 OVC250
     FM221200 09014KT P6SM VCSH BKN030 OVC060
     FM221800 10011KT P6SM VCSH BKN030 OVC050=



000
FTUS42 KTBW 212300
TAFFMY
TAF
KFMY 212324Z 2200/2224 06013KT P6SM VCSH BKN050 OVC100
     FM220900 06010KT P6SM VCSH BKN030 OVC060
     FM221400 09013KT P6SM VCSH BKN030 OVC060=



000
FTUS42 KTBW 212300
TAFRSW
TAF
KRSW 212324Z 2200/2224 05013KT P6SM VCSH BKN050 OVC100
     FM220900 06010KT P6SM VCSH BKN030 OVC060
     FM221400 09015KT P6SM VCSH BKN030 OVC060=



000
FTUS42 KTBW 212300
TAFPIE
TAF
KPIE 212324Z 2200/2224 05011KT P6SM BKN070 OVC250
     FM221200 08010KT P6SM VCSH SCT020 BKN030 OVC060
     FM221800 09011KT P6SM VCSH BKN025 OVC050=



000
FTUS42 KTBW 212300
TAFTPA
TAF
KTPA 212324Z 2200/2224 05009KT P6SM BKN070 OVC250
     FM221200 08010KT P6SM VCSH SCT020 BKN030 OVC060
     FM221800 09011KT P6SM VCSH BKN025 OVC050=



000
FTUS42 KTBW 212100 AAA
TAFTPA
TAF AMD
KTPA 212101Z 2121/2218 05010G17KT P6SM BKN100
     FM220100 05009KT P6SM SCT040 BKN090
     FM221200 09010G19KT P6SM VCSH BKN030 OVC080=



000
FTUS42 KTBW 211700 CCA
TAFFMY
TAF COR
KFMY 211742Z 2118/2218 07012G20KT P6SM SCT050 BKN080
     FM220300 07009KT P6SM SCT030 BKN045
     FM221400 09012G21KT P6SM VCSH BKN025 OVC050=



000
FTUS42 KTBW 211700 CCA
TAFRSW
TAF COR
KRSW 211742Z 2118/2218 06014G20KT P6SM SCT050 BKN080
     FM220300 06010KT P6SM SCT025 BKN045
     FM221400 09013G22KT P6SM VCSH BKN025 OVC050=



000
FTUS42 KTBW 211700
TAFPIE
TAF
KPIE 211737Z 2118/2218 06009G18KT P6SM SCT100
     FM220200 07012KT P6SM SCT030 BKN050
     FM221600 09010G19KT P6SM BKN025 OVC050=



000
FTUS42 KTBW 211700
TAFFMY
TAF
KFMY 211737Z 2118/2218 07012G22KT P6SM SCT050 BKN080
     FM220300 07009KT P6SM SCT030 BKN045
     FM221400 09012G21KT P6SM VCSH BKN025 OVC050=



000
FTUS42 KTBW 211700
TAFTPA
TAF
KTPA 211737Z 2118/2218 05010G19KT P6SM SCT100
     FM220100 06008KT P6SM SCT030 BKN050
     FM221600 09010G19KT P6SM BKN025 OVC050=



000
FTUS42 KTBW 211700
TAFRSW
TAF
KRSW 211737Z 2118/2218 06014G23KT P6SM SCT050 BKN080
     FM220300 06010KT P6SM SCT025 BKN045
     FM221400 09013G22KT P6SM VCSH BKN025 OVC050=



000
FTUS42 KTBW 211700
TAFSRQ
TAF
KSRQ 211737Z 2118/2218 07012G21KT P6SM BKN070 BKN250
     FM212200 07011KT P6SM SCT030 BKN050
     FM221500 09013G22KT P6SM BKN025 OVC050=



000
FTUS42 KTBW 211600 AAB
TAFSRQ
TAF AMD
KSRQ 211659Z 2117/2212 06012G21KT P6SM BKN070 BKN250
     FM212200 08010KT P6SM SCT030 BKN250=



000
FTUS42 KTBW 211600 AAB
TAFTPA
TAF AMD
KTPA 211606Z 2116/2212 04008G16KT P6SM SCT100
     FM220100 06008KT P6SM SCT030 BKN100=



000
FTUS42 KTBW 211400 AAA
TAFTPA
TAF AMD
KTPA 211454Z 2115/2212 04008KT P6SM SCT100
     FM220100 06008KT P6SM SCT030 BKN100=



000
FTUS42 KTBW 211100 AAA
TAFSRQ
TAF AMD
KSRQ 211154Z 2112/2212 05010KT P6SM BKN080
      TEMPO 2112/2114 -RA BKN035
     FM211400 06012KT P6SM BKN070 BKN250
     FM212200 08010KT P6SM SCT030 BKN250=



000
FTUS42 KTBW 211100 AAA
TAFRSW
TAF AMD
KRSW 211153Z 2112/2212 04008KT P6SM BKN080
      TEMPO 2112/2114 -RA BKN035
     FM211400 04012G22KT P6SM SCT050 BKN080
     FM212000 06013KT P6SM SCT040 BKN070
     FM220300 06009KT P6SM SCT030 BKN045=



000
FTUS42 KTBW 211100 AAA
TAFFMY
TAF AMD
KFMY 211153Z 2112/2212 04008KT P6SM BKN080
      TEMPO 2112/2114 -RA BKN035
     FM211400 05012G22KT P6SM SCT050 BKN080
     FM212000 07012KT P6SM SCT040 BKN070
     FM220300 07009KT P6SM SCT030 BKN045=



000
FTUS42 KTBW 211100
TAFRSW
TAF
KRSW 211124Z 2112/2212 04008KT P6SM BKN080
     FM211400 04012G22KT P6SM SCT050 BKN080
     FM212000 06013KT P6SM SCT040 BKN070
     FM220300 06009KT P6SM SCT030 BKN045=



000
FTUS42 KTBW 211100
TAFTPA
TAF
KTPA 211124Z 2112/2212 04008KT P6SM SCT100
     FM220100 06007KT P6SM SCT030 BKN100=



000
FTUS42 KTBW 211100
TAFFMY
TAF
KFMY 211124Z 2112/2212 04008KT P6SM BKN080
     FM211400 05012G22KT P6SM SCT050 BKN080
     FM212000 07012KT P6SM SCT040 BKN070
     FM220300 07009KT P6SM SCT030 BKN045=



000
FTUS42 KTBW 211100
TAFPIE
TAF
KPIE 211124Z 2112/2212 05009KT P6SM SCT100
     FM220200 07012KT P6SM SCT030 BKN100=



000
FTUS42 KTBW 211100
TAFSRQ
TAF
KSRQ 211124Z 2112/2212 05010KT P6SM BKN080
     FM211400 06012KT P6SM BKN070 BKN250
     FM212200 08010KT P6SM SCT030 BKN250=



000
FTUS42 KTBW 210900 AAA
TAFTPA
TAF AMD
KTPA 210905Z 2109/2206 04007KT P6SM SCT150 BKN250
     FM211200 04010KT P6SM SCT090 BKN250
     FM220100 06007KT P6SM SCT030 BKN100=



000
FTUS42 KTBW 210500
TAFRSW
TAF
KRSW 210535Z 2106/2206 05008KT P6SM BKN100 BKN250
     FM211400 04010KT P6SM SCT050 BKN080
     FM212000 06013KT P6SM SCT040 BKN070
     FM220300 06009KT P6SM SCT030 BKN045=



000
FTUS42 KTBW 210500
TAFTPA
TAF
KTPA 210535Z 2106/2206 04007KT P6SM SCT150 BKN250
     FM211200 04010KT P6SM SCT090 BKN250
     FM220100 06007KT P6SM SCT030 BKN100=



000
FTUS42 KTBW 210500
TAFSRQ
TAF
KSRQ 210535Z 2106/2206 04008KT P6SM BKN250
     FM211200 05012KT P6SM SCT090 BKN250
     FM212200 08010KT P6SM SCT030 BKN250=



000
FTUS42 KTBW 210500
TAFPIE
TAF
KPIE 210535Z 2106/2206 04008KT P6SM BKN250
     FM211200 05011KT P6SM SCT090 BKN250
     FM220200 07012KT P6SM SCT030 BKN100=



000
FTUS42 KTBW 210500
TAFFMY
TAF
KFMY 210535Z 2106/2206 06008KT P6SM BKN100 BKN250
     FM211400 05010KT P6SM SCT050 BKN090
     FM212000 07012KT P6SM SCT040 BKN070
     FM220300 07009KT P6SM SCT030 BKN045=



000
FTUS42 KTBW 210200 AAA
TAFTPA
TAF AMD
KTPA 210252Z 2103/2124 04006KT P6SM SCT150 BKN250
     FM211400 04010KT P6SM SCT050 BKN250
     FM212200 06007KT P6SM BKN100 BKN250=



000
FTUS42 KTBW 202300
TAFSRQ
TAF
KSRQ 202335Z 2100/2124 05006KT P6SM SCT250
     FM211400 05011KT P6SM SCT090 BKN250
     FM212200 08009KT P6SM BKN100 BKN250=



000
FTUS42 KTBW 202300
TAFPIE
TAF
KPIE 202335Z 2100/2124 03008KT P6SM BKN250
     FM211200 04010KT P6SM SCT050 BKN250
     FM212000 06008KT P6SM BKN100 BKN250=



000
FTUS42 KTBW 202300
TAFFMY
TAF
KFMY 202335Z 2100/2124 04008KT P6SM FEW045 SCT250
     FM210400 05008KT P6SM SCT030 BKN100 BKN250
     FM211200 05010KT P6SM SCT025 BKN050 BKN250
     FM212000 07012KT P6SM SCT025 BKN050=



000
FTUS42 KTBW 202300
TAFRSW
TAF
KRSW 202335Z 2100/2124 05008KT P6SM FEW045 SCT250
     FM210400 05008KT P6SM SCT030 BKN100 BKN250
     FM211200 05010KT P6SM SCT025 BKN050 BKN250
     FM212000 07012KT P6SM SCT025 BKN050=



000
FTUS42 KTBW 202300
TAFTPA
TAF
KTPA 202335Z 2100/2124 04006KT P6SM BKN250
     FM211400 04010KT P6SM SCT050 BKN250
     FM212200 06007KT P6SM BKN100 BKN250=



000
FTUS42 KTBW 202100 AAA
TAFTPA
TAF AMD
KTPA 202103Z 2021/2118 02008KT P6SM BKN250
     FM211500 05010KT P6SM SCT050=



000
FTUS42 KTBW 201700
TAFPIE
TAF
KPIE 201732Z 2018/2118 02008KT P6SM BKN250
     FM210600 05008KT P6SM FEW050 BKN250
     FM211500 05012KT P6SM SCT050=



000
FTUS42 KTBW 201700
TAFTPA
TAF
KTPA 201732Z 2018/2118 02007KT P6SM BKN250
     FM211500 05010KT P6SM SCT050=



000
FTUS42 KTBW 201700
TAFSRQ
TAF
KSRQ 201732Z 2018/2118 03009KT P6SM BKN250
     FM210600 05007KT P6SM FEW050
     FM211400 05011KT P6SM BKN050=



000
FTUS42 KTBW 201700
TAFFMY
TAF
KFMY 201732Z 2018/2118 05011KT P6SM SCT250
     FM210900 05010KT P6SM SCT020 BKN040
     FM211500 06013KT P6SM SCT020 BKN040=



000
FTUS42 KTBW 201700
TAFRSW
TAF
KRSW 201732Z 2018/2118 05011KT P6SM SCT250
     FM210900 04009KT P6SM SCT020 BKN040
     FM211500 06013KT P6SM SCT020 BKN040=



000
FTUS42 KTBW 201500 AAA
TAFTPA
TAF AMD
KTPA 201520Z 2015/2112 04007KT P6SM BKN250
     FM210200 05005KT P6SM FEW040 SCT250=



000
FTUS42 KTBW 201100
TAFRSW
TAF
KRSW 201125Z 2012/2112 02008KT P6SM SCT060 BKN250
     FM201600 04012KT P6SM FEW050 SCT250
     FM202100 05010KT P6SM SCT020 BKN035=



000
FTUS42 KTBW 201100
TAFFMY
TAF
KFMY 201125Z 2012/2112 04010KT P6SM SCT060 BKN250
     FM201600 05012KT P6SM FEW050 SCT250
     FM202200 05009KT P6SM SCT020 BKN035=



000
FTUS42 KTBW 201100
TAFSRQ
TAF
KSRQ 201125Z 2012/2112 04009KT P6SM SCT250
     FM201500 05010KT P6SM SCT250=



000
FTUS42 KTBW 201100
TAFPIE
TAF
KPIE 201125Z 2012/2112 03008KT P6SM SCT250
     FM210200 05007KT P6SM FEW040 SCT250=



000
FTUS42 KTBW 201100
TAFTPA
TAF
KTPA 201125Z 2012/2112 03007KT P6SM SCT250
     FM210200 05005KT P6SM FEW040 SCT250=



000
FTUS42 KTBW 200800 AAA
TAFTPA
TAF AMD
KTPA 200859Z 2009/2106 03007KT P6SM SCT250=



000
FTUS42 KTBW 200500
TAFRSW
TAF
KRSW 200534Z 2006/2106 02008KT P6SM SCT060 BKN250
     FM201600 04012KT P6SM FEW050 SCT250
     FM202100 05010KT P6SM SCT020 BKN035=



000
FTUS42 KTBW 200500
TAFSRQ
TAF
KSRQ 200534Z 2006/2106 03007KT P6SM SCT250
     FM201500 05010KT P6SM SCT250=



000
FTUS42 KTBW 200500
TAFFMY
TAF
KFMY 200534Z 2006/2106 03010KT P6SM SCT060 BKN250
     FM201600 05012KT P6SM FEW050 SCT250
     FM202200 05009KT P6SM SCT020 BKN035=



000
FTUS42 KTBW 200500
TAFPIE
TAF
KPIE 200534Z 2006/2106 03008KT P6SM SCT250=



000
FTUS42 KTBW 200500
TAFTPA
TAF
KTPA 200534Z 2006/2106 03007KT P6SM SCT250=



000
FTUS42 KTBW 200300 AAA
TAFTPA
TAF AMD
KTPA 200302Z 2003/2024 02006KT P6SM SCT250=



000
FTUS42 KTBW 192300
TAFSRQ
TAF
KSRQ 192339Z 2000/2024 03006KT P6SM SCT250
     FM201500 04010KT P6SM SCT250=



000
FTUS42 KTBW 192300
TAFFMY
TAF
KFMY 192339Z 2000/2024 03008KT P6SM BKN250
     FM202200 05010KT P6SM BKN035=



000
FTUS42 KTBW 192300
TAFPIE
TAF
KPIE 192339Z 2000/2024 02008KT P6SM SCT250=



000
FTUS42 KTBW 192300
TAFRSW
TAF
KRSW 192339Z 2000/2024 03007KT P6SM BKN250
     FM201700 04012KT P6SM SCT050 BKN250
     FM202100 05010KT P6SM BKN035=



000
FTUS42 KTBW 192300
TAFTPA
TAF
KTPA 192339Z 2000/2024 02006KT P6SM SCT250=



000
FTUS42 KTBW 192000 AAA
TAFTPA
TAF AMD
KTPA 192057Z 1921/2018 03008KT P6SM BKN250
     FM200100 02005KT P6SM SCT250
     FM201500 04007KT P6SM FEW250=



000
FTUS42 KTBW 191700
TAFTPA
TAF
KTPA 191739Z 1918/2018 02009KT P6SM BKN100 BKN250
     FM192100 01010KT P6SM FEW100 SCT250
     FM200100 02005KT P6SM FEW250
     FM201500 04007KT P6SM FEW250=



000
FTUS42 KTBW 191700
TAFSRQ
TAF
KSRQ 191739Z 1918/2018 03010G15KT P6SM BKN100 BKN250
     FM192100 03010KT P6SM FEW100 SCT250
     FM200100 02005KT P6SM FEW250
     FM201500 04009KT P6SM FEW250=



000
FTUS42 KTBW 191700
TAFRSW
TAF
KRSW 191739Z 1918/2018 03011G16KT P6SM BKN080 BKN250
     FM192200 04009KT P6SM FEW090 SCT250
     FM200100 02008KT P6SM FEW250
     FM201500 03010KT P6SM FEW250=



000
FTUS42 KTBW 191700
TAFFMY
TAF
KFMY 191739Z 1918/2018 04011G16KT P6SM BKN100 BKN250
     FM192200 03009KT P6SM FEW100 SCT250
     FM200100 02008KT P6SM FEW250
     FM201500 04010KT P6SM FEW250=



000
FTUS42 KTBW 191700
TAFPIE
TAF
KPIE 191739Z 1918/2018 03008KT P6SM BKN100 BKN250
     FM192100 01010KT P6SM FEW100 SCT250
     FM200100 02005KT P6SM FEW250
     FM201400 04007KT P6SM FEW250=



000
FTUS42 KTBW 191500 AAA
TAFTPA
TAF AMD
KTPA 191506Z 1915/2012 02011KT P6SM BKN100 BKN250
     FM192100 02010KT P6SM SCT250
     FM200700 03004KT P6SM BKN250=



000
FTUS42 KTBW 191100
TAFRSW
TAF
KRSW 191131Z 1912/2012 02012G20KT P6SM SCT120 BKN250
     FM191900 04012G18KT P6SM BKN070 BKN250
     FM200700 02009KT P6SM BKN250=



000
FTUS42 KTBW 191100
TAFSRQ
TAF
KSRQ 191131Z 1912/2012 02012G18KT P6SM SCT120 BKN250
     FM192100 02010KT P6SM SCT250
     FM200700 03005KT P6SM BKN250=



000
FTUS42 KTBW 191100
TAFPIE
TAF
KPIE 191131Z 1912/2012 02012G22KT P6SM SCT120 BKN250
     FM192100 03008KT P6SM SCT250
     FM200700 02009KT P6SM BKN250=



000
FTUS42 KTBW 191100
TAFFMY
TAF
KFMY 191131Z 1912/2012 03012G20KT P6SM BKN120 OVC250
     FM191800 04011G18KT P6SM FEW120 BKN250
     FM200700 03010KT P6SM BKN250=



000
FTUS42 KTBW 191100
TAFTPA
TAF
KTPA 191131Z 1912/2012 02011KT P6SM SCT120 BKN250
     FM192100 03007KT P6SM SCT250
     FM200700 03004KT P6SM BKN250=



000
FTUS42 KTBW 190900 AAA
TAFTPA
TAF AMD
KTPA 190902Z 1909/2006 02010KT P6SM FEW120 BKN250
     FM191800 01007KT P6SM FEW120 SCT250=



000
FTUS42 KTBW 190500
TAFTPA
TAF
KTPA 190540Z 1906/2006 02010KT P6SM FEW120 SCT250=



000
FTUS42 KTBW 190500
TAFRSW
TAF
KRSW 190540Z 1906/2006 02010KT P6SM BKN090 BKN250
     FM191700 04011KT P6SM FEW090 SCT250
     FM192000 05010KT P6SM BKN090 BKN250
     FM192300 03009KT P6SM FEW090 SCT250=



000
FTUS42 KTBW 190500
TAFFMY
TAF
KFMY 190540Z 1906/2006 02012KT P6SM BKN090 BKN250
     FM191500 02011KT P6SM FEW090 SCT250
     FM192100 03010KT P6SM BKN080 BKN250
     FM192300 02010KT P6SM SCT250=



000
FTUS42 KTBW 190500
TAFSRQ
TAF
KSRQ 190540Z 1906/2006 03010KT P6SM FEW100 BKN250
     FM191400 03011KT P6SM FEW100 SCT250=



000
FTUS42 KTBW 190500
TAFPIE
TAF
KPIE 190540Z 1906/2006 02013G22KT P6SM FEW120 SCT250
     FM191200 02010KT P6SM FEW120 SCT250=



    US Dept of Commerce
    National Oceanic and Atmospheric Administration
    National Weather Service
    1325 East West Highway
    Silver Spring, MD 20910
    Page Author: NWS Internet Services Team
Disclaimer
Information Quality
Credits
Glossary
Privacy Policy
Freedom of Information Act (FOIA)
About Us
Career Opportunities